sensor_id;sensor_type;location;lat;lon;timestamp;temperature;humidity
38910;DHT22;24676;51.360;12.354;2023-12-20T00:01:38;5.20;99.90
38910;DHT22;24676;51.360;12.354;2023-12-20T00:04:22;5.10;99.90
38910;DHT22;24676;51.360;12.354;2023-12-20T00:07:06;5.20;99.90
38910;DHT22;24676;51.360;12.354;2023-12-20T00:09:51;5.20;99.90
38910;DHT22;24676;51.360;12.354;2023-12-20T00:12:35;5.10;99.90
38910;DHT22;24676;51.360;12.354;2023-12-20T00:15:19;5.20;99.90
38910;DHT22;24676;51.360;12.354;2023-12-20T00:18:03;5.10;99.90
38910;DHT22;24676;51.360;12.354;2023-12-20T00:20:48;5.10;99.90
38910;DHT22;24676;51.360;12.354;2023-12-20T00:23:32;5.10;99.90
38910;DHT22;24676;51.360;12.354;2023-12-20T00:26:16;5.10;99.90
38910;DHT22;24676;51.360;12.354;2023-12-20T00:29:00;5.10;99.90
38910;DHT22;24676;51.360;12.354;2023-12-20T00:31:44;5.10;99.90
38910;DHT22;24676;51.360;12.354;2023-12-20T00:34:28;5.10;99.90
38910;DHT22;24676;51.360;12.354;2023-12-20T00:37:13;5.10;99.90
38910;DHT22;24676;51.360;12.354;2023-12-20T00:39:57;5.10;99.90
38910;DHT22;24676;51.360;12.354;2023-12-20T00:42:41;5.10;99.90
38910;DHT22;24676;51.360;12.354;2023-12-20T00:45:25;5.10;99.90
38910;DHT22;24676;51.360;12.354;2023-12-20T00:48:10;5.00;99.90
38910;DHT22;24676;51.360;12.354;2023-12-20T00:50:54;5.10;99.90
38910;DHT22;24676;51.360;12.354;2023-12-20T00:53:38;5.10;99.90
38910;DHT22;24676;51.360;12.354;2023-12-20T00:56:22;5.10;99.90
38910;DHT22;24676;51.360;12.354;2023-12-20T00:59:06;5.10;99.90
38910;DHT22;24676;51.360;12.354;2023-12-20T01:01:50;5.10;99.90
38910;DHT22;24676;51.360;12.354;2023-12-20T01:04:35;5.10;99.90
38910;DHT22;24676;51.360;12.354;2023-12-20T01:07:19;5.00;99.90
38910;DHT22;24676;51.360;12.354;2023-12-20T01:10:03;5.00;99.90
38910;DHT22;24676;51.360;12.354;2023-12-20T01:12:48;5.00;99.90
38910;DHT22;24676;51.360;12.354;2023-12-20T01:15:33;5.00;99.90
38910;DHT22;24676;51.360;12.354;2023-12-20T01:18:17;5.00;99.90
38910;DHT22;24676;51.360;12.354;2023-12-20T01:21:02;5.00;99.90
38910;DHT22;24676;51.360;12.354;2023-12-20T01:23:47;5.00;99.90
38910;DHT22;24676;51.360;12.354;2023-12-20T01:26:31;5.00;99.90
38910;DHT22;24676;51.360;12.354;2023-12-20T01:29:16;5.00;99.90
38910;DHT22;24676;51.360;12.354;2023-12-20T01:32:00;5.00;99.90
38910;DHT22;24676;51.360;12.354;2023-12-20T01:34:48;5.00;99.90
38910;DHT22;24676;51.360;12.354;2023-12-20T01:37:32;5.00;99.90
38910;DHT22;24676;51.360;12.354;2023-12-20T01:40:16;5.00;99.90
38910;DHT22;24676;51.360;12.354;2023-12-20T01:43:07;5.00;99.90
38910;DHT22;24676;51.360;12.354;2023-12-20T01:45:52;5.00;99.90
38910;DHT22;24676;51.360;12.354;2023-12-20T01:48:39;5.00;99.90
38910;DHT22;24676;51.360;12.354;2023-12-20T01:51:23;5.00;99.90
38910;DHT22;24676;51.360;12.354;2023-12-20T01:54:08;5.00;99.90
38910;DHT22;24676;51.360;12.354;2023-12-20T01:56:52;5.00;99.90
38910;DHT22;24676;51.360;12.354;2023-12-20T01:59:37;5.00;99.90
38910;DHT22;24676;51.360;12.354;2023-12-20T02:02:23;4.90;99.90
38910;DHT22;24676;51.360;12.354;2023-12-20T02:05:07;5.00;99.90
38910;DHT22;24676;51.360;12.354;2023-12-20T02:07:52;5.00;99.90
38910;DHT22;24676;51.360;12.354;2023-12-20T02:10:37;5.00;99.90
38910;DHT22;24676;51.360;12.354;2023-12-20T02:13:21;4.90;99.90
38910;DHT22;24676;51.360;12.354;2023-12-20T02:16:05;5.00;99.90
38910;DHT22;24676;51.360;12.354;2023-12-20T02:18:51;5.00;99.90
38910;DHT22;24676;51.360;12.354;2023-12-20T02:21:35;5.00;99.90
38910;DHT22;24676;51.360;12.354;2023-12-20T02:24:19;5.00;99.90
38910;DHT22;24676;51.360;12.354;2023-12-20T02:27:04;5.00;99.90
38910;DHT22;24676;51.360;12.354;2023-12-20T02:29:49;4.90;99.90
38910;DHT22;24676;51.360;12.354;2023-12-20T02:32:33;4.90;99.90
38910;DHT22;24676;51.360;12.354;2023-12-20T02:35:18;4.90;99.90
38910;DHT22;24676;51.360;12.354;2023-12-20T02:38:02;4.90;99.90
38910;DHT22;24676;51.360;12.354;2023-12-20T02:40:46;4.90;99.90
38910;DHT22;24676;51.360;12.354;2023-12-20T02:43:31;4.90;99.90
38910;DHT22;24676;51.360;12.354;2023-12-20T02:46:24;4.90;99.90
38910;DHT22;24676;51.360;12.354;2023-12-20T02:49:11;4.90;99.90
38910;DHT22;24676;51.360;12.354;2023-12-20T02:51:56;4.90;99.90
38910;DHT22;24676;51.360;12.354;2023-12-20T02:54:40;4.90;99.90
38910;DHT22;24676;51.360;12.354;2023-12-20T02:57:25;4.90;99.90
38910;DHT22;24676;51.360;12.354;2023-12-20T03:00:09;4.90;99.90
38910;DHT22;24676;51.360;12.354;2023-12-20T03:02:54;4.90;99.90
38910;DHT22;24676;51.360;12.354;2023-12-20T03:05:38;4.90;99.90
38910;DHT22;24676;51.360;12.354;2023-12-20T03:08:22;4.90;99.90
38910;DHT22;24676;51.360;12.354;2023-12-20T03:11:06;4.90;99.90
38910;DHT22;24676;51.360;12.354;2023-12-20T03:13:51;5.00;99.90
38910;DHT22;24676;51.360;12.354;2023-12-20T03:16:35;5.00;99.90
38910;DHT22;24676;51.360;12.354;2023-12-20T03:19:19;5.00;99.90
38910;DHT22;24676;51.360;12.354;2023-12-20T03:22:03;5.00;99.90
38910;DHT22;24676;51.360;12.354;2023-12-20T03:24:47;5.00;99.90
38910;DHT22;24676;51.360;12.354;2023-12-20T03:27:31;5.00;99.90
38910;DHT22;24676;51.360;12.354;2023-12-20T03:30:16;5.00;99.90
38910;DHT22;24676;51.360;12.354;2023-12-20T03:33:00;5.00;99.90
38910;DHT22;24676;51.360;12.354;2023-12-20T03:35:44;5.00;99.90
38910;DHT22;24676;51.360;12.354;2023-12-20T03:38:28;5.00;99.90
38910;DHT22;24676;51.360;12.354;2023-12-20T03:41:12;5.00;99.90
38910;DHT22;24676;51.360;12.354;2023-12-20T03:43:56;5.00;99.90
38910;DHT22;24676;51.360;12.354;2023-12-20T03:46:40;5.00;99.90
38910;DHT22;24676;51.360;12.354;2023-12-20T03:49:25;5.00;99.90
38910;DHT22;24676;51.360;12.354;2023-12-20T03:52:09;5.00;99.90
38910;DHT22;24676;51.360;12.354;2023-12-20T03:54:53;5.00;99.90
38910;DHT22;24676;51.360;12.354;2023-12-20T03:57:37;5.00;99.90
38910;DHT22;24676;51.360;12.354;2023-12-20T04:00:21;5.00;99.90
38910;DHT22;24676;51.360;12.354;2023-12-20T04:03:06;5.10;99.90
38910;DHT22;24676;51.360;12.354;2023-12-20T04:05:50;5.10;99.90
38910;DHT22;24676;51.360;12.354;2023-12-20T04:08:35;5.10;99.90
38910;DHT22;24676;51.360;12.354;2023-12-20T04:11:19;5.10;99.90
38910;DHT22;24676;51.360;12.354;2023-12-20T04:14:03;5.10;99.90
38910;DHT22;24676;51.360;12.354;2023-12-20T04:16:49;5.10;99.90
38910;DHT22;24676;51.360;12.354;2023-12-20T04:19:33;5.10;99.90
38910;DHT22;24676;51.360;12.354;2023-12-20T04:22:17;5.00;99.90
38910;DHT22;24676;51.360;12.354;2023-12-20T04:25:02;5.10;99.90
38910;DHT22;24676;51.360;12.354;2023-12-20T04:27:46;5.00;99.90
38910;DHT22;24676;51.360;12.354;2023-12-20T04:30:30;5.10;99.90
38910;DHT22;24676;51.360;12.354;2023-12-20T04:33:14;5.10;99.90
38910;DHT22;24676;51.360;12.354;2023-12-20T04:35:59;5.10;99.90
38910;DHT22;24676;51.360;12.354;2023-12-20T04:38:44;5.10;99.90
38910;DHT22;24676;51.360;12.354;2023-12-20T04:41:28;5.00;99.90
38910;DHT22;24676;51.360;12.354;2023-12-20T04:44:12;5.00;99.90
38910;DHT22;24676;51.360;12.354;2023-12-20T04:46:56;5.00;99.90
38910;DHT22;24676;51.360;12.354;2023-12-20T04:49:41;5.00;99.90
38910;DHT22;24676;51.360;12.354;2023-12-20T04:52:25;5.10;99.90
38910;DHT22;24676;51.360;12.354;2023-12-20T04:55:09;5.10;99.90
38910;DHT22;24676;51.360;12.354;2023-12-20T04:57:53;5.10;99.90
38910;DHT22;24676;51.360;12.354;2023-12-20T05:00:39;5.10;99.90
38910;DHT22;24676;51.360;12.354;2023-12-20T05:03:23;5.10;99.90
38910;DHT22;24676;51.360;12.354;2023-12-20T05:06:07;5.10;99.90
38910;DHT22;24676;51.360;12.354;2023-12-20T05:08:51;5.20;99.90
38910;DHT22;24676;51.360;12.354;2023-12-20T05:11:35;5.20;99.90
38910;DHT22;24676;51.360;12.354;2023-12-20T05:14:19;5.20;99.90
38910;DHT22;24676;51.360;12.354;2023-12-20T05:17:04;5.20;99.90
38910;DHT22;24676;51.360;12.354;2023-12-20T05:19:48;5.20;99.90
38910;DHT22;24676;51.360;12.354;2023-12-20T05:22:32;5.20;99.90
38910;DHT22;24676;51.360;12.354;2023-12-20T05:25:17;5.20;99.90
38910;DHT22;24676;51.360;12.354;2023-12-20T05:28:01;5.20;99.90
38910;DHT22;24676;51.360;12.354;2023-12-20T05:30:45;5.20;99.90
38910;DHT22;24676;51.360;12.354;2023-12-20T05:33:29;5.20;99.90
38910;DHT22;24676;51.360;12.354;2023-12-20T05:36:13;5.30;99.90
38910;DHT22;24676;51.360;12.354;2023-12-20T05:38:59;5.20;99.90
38910;DHT22;24676;51.360;12.354;2023-12-20T05:41:43;5.20;99.90
38910;DHT22;24676;51.360;12.354;2023-12-20T05:44:27;5.20;99.90
38910;DHT22;24676;51.360;12.354;2023-12-20T05:47:11;5.20;99.90
38910;DHT22;24676;51.360;12.354;2023-12-20T05:49:55;5.20;99.90
38910;DHT22;24676;51.360;12.354;2023-12-20T05:52:40;5.20;99.90
38910;DHT22;24676;51.360;12.354;2023-12-20T05:55:24;5.30;99.90
38910;DHT22;24676;51.360;12.354;2023-12-20T05:58:09;5.30;99.90
38910;DHT22;24676;51.360;12.354;2023-12-20T06:00:53;5.30;99.90
38910;DHT22;24676;51.360;12.354;2023-12-20T06:03:40;5.30;99.90
38910;DHT22;24676;51.360;12.354;2023-12-20T06:06:24;5.20;99.90
38910;DHT22;24676;51.360;12.354;2023-12-20T06:09:09;5.20;99.90
38910;DHT22;24676;51.360;12.354;2023-12-20T06:11:53;5.20;99.90
38910;DHT22;24676;51.360;12.354;2023-12-20T06:14:37;5.20;99.90
38910;DHT22;24676;51.360;12.354;2023-12-20T06:17:21;5.10;99.90
38910;DHT22;24676;51.360;12.354;2023-12-20T06:20:06;5.00;99.90
38910;DHT22;24676;51.360;12.354;2023-12-20T06:22:51;5.00;99.90
38910;DHT22;24676;51.360;12.354;2023-12-20T06:25:35;5.10;99.90
38910;DHT22;24676;51.360;12.354;2023-12-20T06:28:19;5.00;99.90
38910;DHT22;24676;51.360;12.354;2023-12-20T06:31:04;4.90;99.90
38910;DHT22;24676;51.360;12.354;2023-12-20T06:33:48;4.80;99.90
38910;DHT22;24676;51.360;12.354;2023-12-20T06:36:40;4.70;99.90
38910;DHT22;24676;51.360;12.354;2023-12-20T06:39:25;4.50;99.90
38910;DHT22;24676;51.360;12.354;2023-12-20T06:42:09;4.50;99.90
38910;DHT22;24676;51.360;12.354;2023-12-20T06:44:53;4.50;99.90
38910;DHT22;24676;51.360;12.354;2023-12-20T06:47:37;4.40;99.90
38910;DHT22;24676;51.360;12.354;2023-12-20T06:50:21;4.40;99.90
38910;DHT22;24676;51.360;12.354;2023-12-20T06:53:06;4.40;99.90
38910;DHT22;24676;51.360;12.354;2023-12-20T06:55:51;4.40;99.90
38910;DHT22;24676;51.360;12.354;2023-12-20T06:58:35;4.40;99.90
38910;DHT22;24676;51.360;12.354;2023-12-20T07:01:20;4.50;99.90
38910;DHT22;24676;51.360;12.354;2023-12-20T07:04:05;4.50;99.90
38910;DHT22;24676;51.360;12.354;2023-12-20T07:06:49;4.60;99.90
38910;DHT22;24676;51.360;12.354;2023-12-20T07:09:35;4.60;99.90
38910;DHT22;24676;51.360;12.354;2023-12-20T07:12:20;4.50;99.90
38910;DHT22;24676;51.360;12.354;2023-12-20T07:15:04;4.40;99.90
38910;DHT22;24676;51.360;12.354;2023-12-20T07:17:49;4.40;99.90
38910;DHT22;24676;51.360;12.354;2023-12-20T07:20:34;4.30;99.90
38910;DHT22;24676;51.360;12.354;2023-12-20T07:23:18;4.30;99.90
38910;DHT22;24676;51.360;12.354;2023-12-20T07:26:04;4.30;99.90
38910;DHT22;24676;51.360;12.354;2023-12-20T07:28:48;4.30;99.90
38910;DHT22;24676;51.360;12.354;2023-12-20T07:31:32;4.40;99.90
38910;DHT22;24676;51.360;12.354;2023-12-20T07:34:16;4.50;99.90
38910;DHT22;24676;51.360;12.354;2023-12-20T07:37:01;4.60;99.90
38910;DHT22;24676;51.360;12.354;2023-12-20T07:39:45;4.70;99.90
38910;DHT22;24676;51.360;12.354;2023-12-20T07:42:29;4.70;99.90
38910;DHT22;24676;51.360;12.354;2023-12-20T07:45:13;4.80;99.90
38910;DHT22;24676;51.360;12.354;2023-12-20T07:48:00;4.90;99.90
38910;DHT22;24676;51.360;12.354;2023-12-20T07:50:44;5.00;99.90
38910;DHT22;24676;51.360;12.354;2023-12-20T07:53:28;5.10;99.90
38910;DHT22;24676;51.360;12.354;2023-12-20T07:56:13;5.20;99.90
38910;DHT22;24676;51.360;12.354;2023-12-20T07:58:57;5.30;99.90
38910;DHT22;24676;51.360;12.354;2023-12-20T08:01:42;5.30;99.90
38910;DHT22;24676;51.360;12.354;2023-12-20T08:04:26;5.30;99.90
38910;DHT22;24676;51.360;12.354;2023-12-20T08:07:11;5.20;99.90
38910;DHT22;24676;51.360;12.354;2023-12-20T08:09:55;5.20;99.90
38910;DHT22;24676;51.360;12.354;2023-12-20T08:12:41;5.20;99.90
38910;DHT22;24676;51.360;12.354;2023-12-20T08:15:25;5.30;99.90
38910;DHT22;24676;51.360;12.354;2023-12-20T08:18:09;5.30;99.90
38910;DHT22;24676;51.360;12.354;2023-12-20T08:20:53;5.10;99.90
38910;DHT22;24676;51.360;12.354;2023-12-20T08:23:37;5.20;99.90
38910;DHT22;24676;51.360;12.354;2023-12-20T08:26:22;5.20;99.90
38910;DHT22;24676;51.360;12.354;2023-12-20T08:29:07;5.30;99.90
38910;DHT22;24676;51.360;12.354;2023-12-20T08:31:54;5.40;99.90
38910;DHT22;24676;51.360;12.354;2023-12-20T08:34:38;5.50;99.90
38910;DHT22;24676;51.360;12.354;2023-12-20T08:37:23;5.40;99.90
38910;DHT22;24676;51.360;12.354;2023-12-20T08:40:07;5.60;99.90
38910;DHT22;24676;51.360;12.354;2023-12-20T08:42:52;5.60;99.90
38910;DHT22;24676;51.360;12.354;2023-12-20T08:45:36;5.70;99.90
38910;DHT22;24676;51.360;12.354;2023-12-20T08:48:20;5.80;99.90
38910;DHT22;24676;51.360;12.354;2023-12-20T08:51:04;5.80;99.90
38910;DHT22;24676;51.360;12.354;2023-12-20T08:53:51;5.80;99.90
38910;DHT22;24676;51.360;12.354;2023-12-20T08:56:35;5.80;99.90
38910;DHT22;24676;51.360;12.354;2023-12-20T08:59:19;5.90;99.90
38910;DHT22;24676;51.360;12.354;2023-12-20T09:02:03;6.10;99.90
38910;DHT22;24676;51.360;12.354;2023-12-20T09:04:47;6.20;99.90
38910;DHT22;24676;51.360;12.354;2023-12-20T09:07:32;6.30;99.90
38910;DHT22;24676;51.360;12.354;2023-12-20T09:10:16;6.40;99.90
38910;DHT22;24676;51.360;12.354;2023-12-20T09:13:00;6.50;99.90
38910;DHT22;24676;51.360;12.354;2023-12-20T09:15:44;6.70;99.90
38910;DHT22;24676;51.360;12.354;2023-12-20T09:18:28;6.90;99.90
38910;DHT22;24676;51.360;12.354;2023-12-20T09:21:12;6.80;99.90
38910;DHT22;24676;51.360;12.354;2023-12-20T09:23:56;6.50;99.90
38910;DHT22;24676;51.360;12.354;2023-12-20T09:26:41;6.40;99.90
38910;DHT22;24676;51.360;12.354;2023-12-20T09:29:26;6.40;99.90
38910;DHT22;24676;51.360;12.354;2023-12-20T09:32:10;6.40;99.90
38910;DHT22;24676;51.360;12.354;2023-12-20T09:34:54;6.30;99.90
38910;DHT22;24676;51.360;12.354;2023-12-20T09:37:38;6.20;99.90
38910;DHT22;24676;51.360;12.354;2023-12-20T09:40:26;6.40;99.90
38910;DHT22;24676;51.360;12.354;2023-12-20T09:43:11;6.60;99.90
38910;DHT22;24676;51.360;12.354;2023-12-20T09:45:59;7.00;99.90
38910;DHT22;24676;51.360;12.354;2023-12-20T09:48:44;7.30;99.90
38910;DHT22;24676;51.360;12.354;2023-12-20T09:51:29;7.60;99.90
38910;DHT22;24676;51.360;12.354;2023-12-20T09:54:14;7.80;99.90
38910;DHT22;24676;51.360;12.354;2023-12-20T09:56:59;8.10;99.90
38910;DHT22;24676;51.360;12.354;2023-12-20T09:59:43;8.50;99.90
38910;DHT22;24676;51.360;12.354;2023-12-20T10:02:27;8.70;99.90
38910;DHT22;24676;51.360;12.354;2023-12-20T10:05:16;8.40;99.90
38910;DHT22;24676;51.360;12.354;2023-12-20T10:08:03;8.50;99.90
38910;DHT22;24676;51.360;12.354;2023-12-20T10:10:47;8.80;99.90
38910;DHT22;24676;51.360;12.354;2023-12-20T10:13:31;9.20;99.90
38910;DHT22;24676;51.360;12.354;2023-12-20T10:16:15;9.60;99.90
38910;DHT22;24676;51.360;12.354;2023-12-20T10:19:00;9.30;99.90
38910;DHT22;24676;51.360;12.354;2023-12-20T10:21:48;8.70;99.90
38910;DHT22;24676;51.360;12.354;2023-12-20T10:24:32;8.20;99.90
38910;DHT22;24676;51.360;12.354;2023-12-20T10:27:16;7.90;99.90
38910;DHT22;24676;51.360;12.354;2023-12-20T10:30:03;7.70;99.90
38910;DHT22;24676;51.360;12.354;2023-12-20T10:32:48;8.10;99.90
38910;DHT22;24676;51.360;12.354;2023-12-20T10:35:32;8.60;99.90
38910;DHT22;24676;51.360;12.354;2023-12-20T10:38:17;9.00;99.90
38910;DHT22;24676;51.360;12.354;2023-12-20T10:41:01;8.60;99.90
38910;DHT22;24676;51.360;12.354;2023-12-20T10:43:46;8.40;99.90
38910;DHT22;24676;51.360;12.354;2023-12-20T10:46:31;8.20;99.90
38910;DHT22;24676;51.360;12.354;2023-12-20T10:49:18;8.10;99.90
38910;DHT22;24676;51.360;12.354;2023-12-20T10:52:02;8.20;99.90
38910;DHT22;24676;51.360;12.354;2023-12-20T10:54:48;8.60;99.90
38910;DHT22;24676;51.360;12.354;2023-12-20T10:57:32;8.70;99.90
38910;DHT22;24676;51.360;12.354;2023-12-20T11:00:17;8.60;99.90
38910;DHT22;24676;51.360;12.354;2023-12-20T11:03:02;8.70;99.90
38910;DHT22;24676;51.360;12.354;2023-12-20T11:05:50;8.70;99.90
38910;DHT22;24676;51.360;12.354;2023-12-20T11:08:58;8.50;99.90
38910;DHT22;24676;51.360;12.354;2023-12-20T11:14:50;8.20;99.90
38910;DHT22;24676;51.360;12.354;2023-12-20T11:17:35;8.00;99.90
38910;DHT22;24676;51.360;12.354;2023-12-20T11:20:23;7.90;99.90
38910;DHT22;24676;51.360;12.354;2023-12-20T11:23:08;7.80;99.90
38910;DHT22;24676;51.360;12.354;2023-12-20T11:25:53;7.70;99.90
38910;DHT22;24676;51.360;12.354;2023-12-20T11:28:37;7.60;99.90
38910;DHT22;24676;51.360;12.354;2023-12-20T11:31:21;7.60;99.90
38910;DHT22;24676;51.360;12.354;2023-12-20T11:34:15;7.50;99.90
38910;DHT22;24676;51.360;12.354;2023-12-20T11:37:02;7.70;99.90
38910;DHT22;24676;51.360;12.354;2023-12-20T11:39:56;7.70;99.90
38910;DHT22;24676;51.360;12.354;2023-12-20T11:45:24;7.50;99.90
38910;DHT22;24676;51.360;12.354;2023-12-20T11:48:09;7.30;99.90
38910;DHT22;24676;51.360;12.354;2023-12-20T11:50:54;7.20;99.90
38910;DHT22;24676;51.360;12.354;2023-12-20T11:53:39;7.30;99.90
38910;DHT22;24676;51.360;12.354;2023-12-20T11:56:23;7.30;99.90
38910;DHT22;24676;51.360;12.354;2023-12-20T11:59:08;7.30;99.90
38910;DHT22;24676;51.360;12.354;2023-12-20T12:01:52;7.30;99.90
38910;DHT22;24676;51.360;12.354;2023-12-20T12:04:36;7.30;99.90
38910;DHT22;24676;51.360;12.354;2023-12-20T12:07:21;7.40;99.90
38910;DHT22;24676;51.360;12.354;2023-12-20T12:10:05;7.50;99.90
38910;DHT22;24676;51.360;12.354;2023-12-20T12:12:50;7.70;99.90
38910;DHT22;24676;51.360;12.354;2023-12-20T12:15:34;7.90;99.90
38910;DHT22;24676;51.360;12.354;2023-12-20T12:18:18;7.90;99.90
38910;DHT22;24676;51.360;12.354;2023-12-20T12:21:03;8.00;99.90
38910;DHT22;24676;51.360;12.354;2023-12-20T12:23:48;7.90;99.90
38910;DHT22;24676;51.360;12.354;2023-12-20T12:26:33;8.00;99.90
38910;DHT22;24676;51.360;12.354;2023-12-20T12:29:17;8.00;99.90
38910;DHT22;24676;51.360;12.354;2023-12-20T12:32:05;8.10;99.90
38910;DHT22;24676;51.360;12.354;2023-12-20T12:34:51;8.00;99.90
38910;DHT22;24676;51.360;12.354;2023-12-20T12:37:35;7.90;99.90
38910;DHT22;24676;51.360;12.354;2023-12-20T12:40:20;8.00;99.90
38910;DHT22;24676;51.360;12.354;2023-12-20T12:43:04;8.00;99.90
38910;DHT22;24676;51.360;12.354;2023-12-20T12:45:49;8.00;99.90
38910;DHT22;24676;51.360;12.354;2023-12-20T12:48:33;8.00;99.90
38910;DHT22;24676;51.360;12.354;2023-12-20T12:51:18;8.00;99.90
38910;DHT22;24676;51.360;12.354;2023-12-20T12:54:02;7.90;99.90
38910;DHT22;24676;51.360;12.354;2023-12-20T12:56:47;7.90;99.90
38910;DHT22;24676;51.360;12.354;2023-12-20T12:59:31;7.80;99.90
38910;DHT22;24676;51.360;12.354;2023-12-20T13:02:15;7.90;99.90
38910;DHT22;24676;51.360;12.354;2023-12-20T13:04:59;7.80;99.90
38910;DHT22;24676;51.360;12.354;2023-12-20T13:07:45;7.70;99.90
38910;DHT22;24676;51.360;12.354;2023-12-20T13:10:29;7.70;99.90
38910;DHT22;24676;51.360;12.354;2023-12-20T13:13:13;7.70;99.90
38910;DHT22;24676;51.360;12.354;2023-12-20T13:15:58;7.70;99.90
38910;DHT22;24676;51.360;12.354;2023-12-20T13:18:42;7.60;99.90
38910;DHT22;24676;51.360;12.354;2023-12-20T13:21:26;7.50;99.90
38910;DHT22;24676;51.360;12.354;2023-12-20T13:24:10;7.50;99.90
38910;DHT22;24676;51.360;12.354;2023-12-20T13:26:55;7.50;99.90
38910;DHT22;24676;51.360;12.354;2023-12-20T13:29:39;7.50;99.90
38910;DHT22;24676;51.360;12.354;2023-12-20T13:32:23;7.50;99.90
38910;DHT22;24676;51.360;12.354;2023-12-20T13:35:07;7.40;99.90
38910;DHT22;24676;51.360;12.354;2023-12-20T13:37:51;7.40;99.90
38910;DHT22;24676;51.360;12.354;2023-12-20T13:40:39;7.40;99.90
38910;DHT22;24676;51.360;12.354;2023-12-20T13:43:25;7.30;99.90
38910;DHT22;24676;51.360;12.354;2023-12-20T13:46:09;7.30;99.90
38910;DHT22;24676;51.360;12.354;2023-12-20T13:48:53;7.30;99.90
38910;DHT22;24676;51.360;12.354;2023-12-20T13:51:38;7.30;99.90
38910;DHT22;24676;51.360;12.354;2023-12-20T13:54:22;7.20;99.90
38910;DHT22;24676;51.360;12.354;2023-12-20T13:57:06;7.20;99.90
38910;DHT22;24676;51.360;12.354;2023-12-20T13:59:50;7.20;99.90
38910;DHT22;24676;51.360;12.354;2023-12-20T14:02:35;7.20;99.90
38910;DHT22;24676;51.360;12.354;2023-12-20T14:05:19;7.30;99.90
38910;DHT22;24676;51.360;12.354;2023-12-20T14:08:04;7.30;99.90
38910;DHT22;24676;51.360;12.354;2023-12-20T14:10:48;7.30;99.90
38910;DHT22;24676;51.360;12.354;2023-12-20T14:13:32;7.40;99.90
38910;DHT22;24676;51.360;12.354;2023-12-20T14:16:16;7.40;99.90
38910;DHT22;24676;51.360;12.354;2023-12-20T14:19:00;7.30;99.90
38910;DHT22;24676;51.360;12.354;2023-12-20T14:21:47;7.20;99.90
38910;DHT22;24676;51.360;12.354;2023-12-20T14:24:31;7.10;99.90
38910;DHT22;24676;51.360;12.354;2023-12-20T14:27:15;7.10;99.90
38910;DHT22;24676;51.360;12.354;2023-12-20T14:29:59;7.00;99.90
38910;DHT22;24676;51.360;12.354;2023-12-20T14:32:44;7.10;99.90
38910;DHT22;24676;51.360;12.354;2023-12-20T14:35:28;7.00;99.90
38910;DHT22;24676;51.360;12.354;2023-12-20T14:38:12;7.00;99.90
38910;DHT22;24676;51.360;12.354;2023-12-20T14:40:59;7.00;99.90
38910;DHT22;24676;51.360;12.354;2023-12-20T14:43:47;6.90;99.90
38910;DHT22;24676;51.360;12.354;2023-12-20T14:46:31;6.90;99.90
38910;DHT22;24676;51.360;12.354;2023-12-20T14:49:15;6.90;99.90
38910;DHT22;24676;51.360;12.354;2023-12-20T14:51:59;6.90;99.90
38910;DHT22;24676;51.360;12.354;2023-12-20T14:54:43;6.80;99.90
38910;DHT22;24676;51.360;12.354;2023-12-20T14:57:27;6.90;99.90
38910;DHT22;24676;51.360;12.354;2023-12-20T15:00:11;6.90;99.90
38910;DHT22;24676;51.360;12.354;2023-12-20T15:03:00;6.90;99.90
38910;DHT22;24676;51.360;12.354;2023-12-20T15:05:44;7.00;99.90
38910;DHT22;24676;51.360;12.354;2023-12-20T15:08:28;7.00;99.90
38910;DHT22;24676;51.360;12.354;2023-12-20T15:11:12;7.00;99.90
38910;DHT22;24676;51.360;12.354;2023-12-20T15:13:57;7.00;99.90
38910;DHT22;24676;51.360;12.354;2023-12-20T15:16:44;6.90;99.90
38910;DHT22;24676;51.360;12.354;2023-12-20T15:19:28;7.00;99.90
38910;DHT22;24676;51.360;12.354;2023-12-20T15:22:12;6.90;99.90
38910;DHT22;24676;51.360;12.354;2023-12-20T15:24:56;6.90;99.90
38910;DHT22;24676;51.360;12.354;2023-12-20T15:27:41;6.90;99.90
38910;DHT22;24676;51.360;12.354;2023-12-20T15:30:25;6.90;99.90
38910;DHT22;24676;51.360;12.354;2023-12-20T15:33:09;6.90;99.90
38910;DHT22;24676;51.360;12.354;2023-12-20T15:35:53;6.80;99.90
38910;DHT22;24676;51.360;12.354;2023-12-20T15:38:38;6.90;99.90
38910;DHT22;24676;51.360;12.354;2023-12-20T15:41:22;6.90;99.90
38910;DHT22;24676;51.360;12.354;2023-12-20T15:44:07;6.90;99.90
38910;DHT22;24676;51.360;12.354;2023-12-20T15:46:51;6.80;99.90
38910;DHT22;24676;51.360;12.354;2023-12-20T15:49:36;6.70;99.90
38910;DHT22;24676;51.360;12.354;2023-12-20T15:52:20;6.70;99.90
38910;DHT22;24676;51.360;12.354;2023-12-20T15:55:05;6.70;99.90
38910;DHT22;24676;51.360;12.354;2023-12-20T15:57:49;6.70;99.90
38910;DHT22;24676;51.360;12.354;2023-12-20T16:00:33;6.70;99.90
38910;DHT22;24676;51.360;12.354;2023-12-20T16:03:17;6.70;99.90
38910;DHT22;24676;51.360;12.354;2023-12-20T16:06:01;6.70;99.90
38910;DHT22;24676;51.360;12.354;2023-12-20T16:08:46;6.70;99.90
38910;DHT22;24676;51.360;12.354;2023-12-20T16:11:30;6.80;99.90
38910;DHT22;24676;51.360;12.354;2023-12-20T16:14:15;6.70;99.90
38910;DHT22;24676;51.360;12.354;2023-12-20T16:17:02;6.80;99.90
38910;DHT22;24676;51.360;12.354;2023-12-20T16:19:46;6.70;99.90
38910;DHT22;24676;51.360;12.354;2023-12-20T16:22:30;6.70;99.90
38910;DHT22;24676;51.360;12.354;2023-12-20T16:25:14;6.60;99.90
38910;DHT22;24676;51.360;12.354;2023-12-20T16:27:58;6.50;99.90
38910;DHT22;24676;51.360;12.354;2023-12-20T16:30:46;6.40;99.90
38910;DHT22;24676;51.360;12.354;2023-12-20T16:33:30;6.30;99.90
38910;DHT22;24676;51.360;12.354;2023-12-20T16:36:14;6.20;99.90
38910;DHT22;24676;51.360;12.354;2023-12-20T16:38:59;6.20;99.90
38910;DHT22;24676;51.360;12.354;2023-12-20T16:41:43;6.20;99.90
38910;DHT22;24676;51.360;12.354;2023-12-20T16:44:27;6.10;99.90
38910;DHT22;24676;51.360;12.354;2023-12-20T16:47:11;6.10;99.90
38910;DHT22;24676;51.360;12.354;2023-12-20T16:49:55;6.00;99.90
38910;DHT22;24676;51.360;12.354;2023-12-20T16:52:40;6.00;99.90
38910;DHT22;24676;51.360;12.354;2023-12-20T16:55:24;5.80;99.90
38910;DHT22;24676;51.360;12.354;2023-12-20T16:58:09;5.80;99.90
38910;DHT22;24676;51.360;12.354;2023-12-20T17:00:52;5.80;99.90
38910;DHT22;24676;51.360;12.354;2023-12-20T17:03:37;5.70;99.90
38910;DHT22;24676;51.360;12.354;2023-12-20T17:06:21;5.70;99.90
38910;DHT22;24676;51.360;12.354;2023-12-20T17:09:07;5.60;99.90
38910;DHT22;24676;51.360;12.354;2023-12-20T17:11:52;5.60;99.90
38910;DHT22;24676;51.360;12.354;2023-12-20T17:14:36;5.60;99.90
38910;DHT22;24676;51.360;12.354;2023-12-20T17:17:21;5.50;99.90
38910;DHT22;24676;51.360;12.354;2023-12-20T17:20:05;5.50;99.90
38910;DHT22;24676;51.360;12.354;2023-12-20T17:22:50;5.50;99.90
38910;DHT22;24676;51.360;12.354;2023-12-20T17:25:34;5.50;99.90